sensor_id;sensor_type;location;lat;lon;timestamp;pressure;altitude;pressure_sealevel;temperature;humidity
19795;BME280;10057;59.402;17.866;2024-01-30T00:00:47;102406.25;;;1.33;89.92
19795;BME280;10057;59.402;17.866;2024-01-30T00:03:14;102403.66;;;1.33;89.92
19795;BME280;10057;59.402;17.866;2024-01-30T00:05:40;102408.97;;;1.36;90.00
19795;BME280;10057;59.402;17.866;2024-01-30T00:08:07;102405.44;;;1.34;89.73
19795;BME280;10057;59.402;17.866;2024-01-30T00:10:34;102414.09;;;1.32;89.57
19795;BME280;10057;59.402;17.866;2024-01-30T00:13:00;102400.91;;;1.29;90.02
19795;BME280;10057;59.402;17.866;2024-01-30T00:15:27;102400.06;;;1.30;90.16
19795;BME280;10057;59.402;17.866;2024-01-30T00:17:54;102393.13;;;1.30;89.96
19795;BME280;10057;59.402;17.866;2024-01-30T00:20:21;102392.28;;;1.31;90.30
19795;BME280;10057;59.402;17.866;2024-01-30T00:22:47;102395.78;;;1.32;90.23
19795;BME280;10057;59.402;17.866;2024-01-30T00:25:14;102394.91;;;1.31;89.97
19795;BME280;10057;59.402;17.866;2024-01-30T00:27:41;102394.91;;;1.31;89.64
19795;BME280;10057;59.402;17.866;2024-01-30T00:30:08;102394.81;;;1.28;89.57
19795;BME280;10057;59.402;17.866;2024-01-30T00:32:35;102397.41;;;1.27;89.79
19795;BME280;10057;59.402;17.866;2024-01-30T00:35:02;102398.97;;;1.22;89.33
19795;BME280;10057;59.402;17.866;2024-01-30T00:37:29;102403.25;;;1.18;89.68
19795;BME280;10057;59.402;17.866;2024-01-30T00:39:56;102394.47;;;1.16;89.56
19795;BME280;10057;59.402;17.866;2024-01-30T00:42:23;102391.78;;;1.13;89.52
19795;BME280;10057;59.402;17.866;2024-01-30T00:44:50;102403.94;;;1.12;89.86
19795;BME280;10057;59.402;17.866;2024-01-30T00:47:17;102395.13;;;1.09;89.36
19795;BME280;10057;59.402;17.866;2024-01-30T00:49:43;102399.44;;;1.07;89.84
19795;BME280;10057;59.402;17.866;2024-01-30T00:52:10;102395.00;;;1.04;89.69
19795;BME280;10057;59.402;17.866;2024-01-30T00:54:38;102396.75;;;1.04;89.56
19795;BME280;10057;59.402;17.866;2024-01-30T00:57:05;102399.28;;;1.01;89.83
19795;BME280;10057;59.402;17.866;2024-01-30T00:59:31;102405.34;;;1.00;89.93
19795;BME280;10057;59.402;17.866;2024-01-30T01:01:58;102416.63;;;0.99;89.85
19795;BME280;10057;59.402;17.866;2024-01-30T01:04:25;102408.66;;;0.94;89.59
19795;BME280;10057;59.402;17.866;2024-01-30T01:06:53;102413.88;;;0.92;89.86
19795;BME280;10057;59.402;17.866;2024-01-30T01:09:20;102415.53;;;0.90;90.01
19795;BME280;10057;59.402;17.866;2024-01-30T01:11:46;102410.19;;;0.86;89.88
19795;BME280;10057;59.402;17.866;2024-01-30T01:14:13;102410.97;;;0.83;89.60
19795;BME280;10057;59.402;17.866;2024-01-30T01:16:40;102407.31;;;0.78;89.85
19795;BME280;10057;59.402;17.866;2024-01-30T01:19:06;102402.00;;;0.75;89.96
19795;BME280;10057;59.402;17.866;2024-01-30T01:21:33;102401.94;;;0.72;89.77
19795;BME280;10057;59.402;17.866;2024-01-30T01:24:00;102408.84;;;0.70;90.05
19795;BME280;10057;59.402;17.866;2024-01-30T01:26:26;102403.50;;;0.67;89.78
19795;BME280;10057;59.402;17.866;2024-01-30T01:28:53;102405.19;;;0.65;89.76
19795;BME280;10057;59.402;17.866;2024-01-30T01:31:19;102405.94;;;0.61;90.01
19795;BME280;10057;59.402;17.866;2024-01-30T01:33:49;102401.56;;;0.60;90.10
19795;BME280;10057;59.402;17.866;2024-01-30T01:36:16;102405.91;;;0.59;89.97
19795;BME280;10057;59.402;17.866;2024-01-30T01:38:42;102400.59;;;0.56;90.08
19795;BME280;10057;59.402;17.866;2024-01-30T01:41:09;102408.34;;;0.55;89.77
19795;BME280;10057;59.402;17.866;2024-01-30T01:43:36;102411.78;;;0.52;89.91
19795;BME280;10057;59.402;17.866;2024-01-30T01:46:05;102407.34;;;0.50;90.22
19795;BME280;10057;59.402;17.866;2024-01-30T01:48:32;102410.75;;;0.47;90.14
19795;BME280;10057;59.402;17.866;2024-01-30T01:50:59;102408.97;;;0.46;90.13
19795;BME280;10057;59.402;17.866;2024-01-30T01:53:26;102412.44;;;0.45;90.07
19795;BME280;10057;59.402;17.866;2024-01-30T01:55:54;102412.38;;;0.43;90.17
19795;BME280;10057;59.402;17.866;2024-01-30T01:58:21;102402.81;;;0.44;90.26
19795;BME280;10057;59.402;17.866;2024-01-30T02:00:50;102408.88;;;0.43;90.22
19795;BME280;10057;59.402;17.866;2024-01-30T02:03:18;102411.47;;;0.41;90.30
19795;BME280;10057;59.402;17.866;2024-01-30T02:05:45;102409.72;;;0.42;89.67
19795;BME280;10057;59.402;17.866;2024-01-30T02:08:12;102406.22;;;0.41;90.27
19795;BME280;10057;59.402;17.866;2024-01-30T02:10:39;102407.13;;;0.42;90.17
19795;BME280;10057;59.402;17.866;2024-01-30T02:13:05;102402.78;;;0.42;90.06
19795;BME280;10057;59.402;17.866;2024-01-30T02:15:32;102407.94;;;0.41;90.20
19795;BME280;10057;59.402;17.866;2024-01-30T02:17:59;102412.28;;;0.40;90.30
19795;BME280;10057;59.402;17.866;2024-01-30T02:20:28;102407.91;;;0.39;90.35
19795;BME280;10057;59.402;17.866;2024-01-30T02:22:58;102411.47;;;0.41;90.29
19795;BME280;10057;59.402;17.866;2024-01-30T02:25:35;102407.13;;;0.42;90.35
19795;BME280;10057;59.402;17.866;2024-01-30T02:28:02;102399.28;;;0.42;90.47
19795;BME280;10057;59.402;17.866;2024-01-30T02:30:29;102402.78;;;0.42;90.42
19795;BME280;10057;59.402;17.866;2024-01-30T02:32:56;102405.38;;;0.42;90.28
19795;BME280;10057;59.402;17.866;2024-01-30T02:35:22;102406.28;;;0.43;90.31
19795;BME280;10057;59.402;17.866;2024-01-30T02:37:49;102401.00;;;0.41;90.35
19795;BME280;10057;59.402;17.866;2024-01-30T02:40:16;102403.63;;;0.41;90.38
19795;BME280;10057;59.402;17.866;2024-01-30T02:42:42;102395.78;;;0.41;90.32
19795;BME280;10057;59.402;17.866;2024-01-30T02:45:11;102394.88;;;0.41;90.50
19795;BME280;10057;59.402;17.866;2024-01-30T02:47:38;102394.88;;;0.41;90.21
19795;BME280;10057;59.402;17.866;2024-01-30T02:50:05;102386.16;;;0.40;90.58
19795;BME280;10057;59.402;17.866;2024-01-30T02:52:32;102392.34;;;0.42;90.35
19795;BME280;10057;59.402;17.866;2024-01-30T02:55:00;102391.44;;;0.42;90.39
19795;BME280;10057;59.402;17.866;2024-01-30T02:57:26;102394.88;;;0.41;90.24
19795;BME280;10057;59.402;17.866;2024-01-30T02:59:53;102388.78;;;0.40;90.34
19795;BME280;10057;59.402;17.866;2024-01-30T03:02:20;102394.94;;;0.42;90.35
19795;BME280;10057;59.402;17.866;2024-01-30T03:04:46;102386.22;;;0.42;90.48
19795;BME280;10057;59.402;17.866;2024-01-30T03:07:13;102393.22;;;0.43;90.45
19795;BME280;10057;59.402;17.866;2024-01-30T03:09:44;102395.78;;;0.41;90.17
19795;BME280;10057;59.402;17.866;2024-01-30T03:12:11;102400.06;;;0.39;90.38
19795;BME280;10057;59.402;17.866;2024-01-30T03:14:37;102398.25;;;0.37;90.17
19795;BME280;10057;59.402;17.866;2024-01-30T03:17:04;102400.81;;;0.35;89.97
19795;BME280;10057;59.402;17.866;2024-01-30T03:19:30;102403.44;;;0.35;90.37
19795;BME280;10057;59.402;17.866;2024-01-30T03:21:58;102402.56;;;0.36;90.35
19795;BME280;10057;59.402;17.866;2024-01-30T03:24:25;102404.34;;;0.37;90.36
19795;BME280;10057;59.402;17.866;2024-01-30T03:26:51;102409.56;;;0.37;90.18
19795;BME280;10057;59.402;17.866;2024-01-30T03:29:18;102410.31;;;0.33;90.00
19795;BME280;10057;59.402;17.866;2024-01-30T03:31:45;102407.69;;;0.33;89.94
19795;BME280;10057;59.402;17.866;2024-01-30T03:34:11;102412.81;;;0.30;90.18
19795;BME280;10057;59.402;17.866;2024-01-30T03:36:38;102412.72;;;0.27;89.92
19795;BME280;10057;59.402;17.866;2024-01-30T03:39:05;102415.34;;;0.27;89.79
19795;BME280;10057;59.402;17.866;2024-01-30T03:41:32;102410.97;;;0.26;90.04
19795;BME280;10057;59.402;17.866;2024-01-30T03:43:59;102414.41;;;0.25;89.96
19795;BME280;10057;59.402;17.866;2024-01-30T03:46:25;102423.16;;;0.27;90.15
19795;BME280;10057;59.402;17.866;2024-01-30T03:48:52;102418.69;;;0.23;89.83
19795;BME280;10057;59.402;17.866;2024-01-30T03:51:19;102424.69;;;0.20;89.91
19795;BME280;10057;59.402;17.866;2024-01-30T03:53:46;102423.81;;;0.20;90.19
19795;BME280;10057;59.402;17.866;2024-01-30T03:56:12;102418.59;;;0.20;90.16
19795;BME280;10057;59.402;17.866;2024-01-30T03:58:40;102416.84;;;0.19;90.15
19795;BME280;10057;59.402;17.866;2024-01-30T04:01:07;102422.91;;;0.18;89.94
19795;BME280;10057;59.402;17.866;2024-01-30T04:03:34;102417.56;;;0.15;89.82
19795;BME280;10057;59.402;17.866;2024-01-30T04:06:01;102415.81;;;0.14;90.04
19795;BME280;10057;59.402;17.866;2024-01-30T04:08:27;102422.78;;;0.15;89.99
19795;BME280;10057;59.402;17.866;2024-01-30T04:10:54;102421.84;;;0.13;90.05
19795;BME280;10057;59.402;17.866;2024-01-30T04:13:21;102419.25;;;0.13;90.08
19795;BME280;10057;59.402;17.866;2024-01-30T04:15:47;102418.31;;;0.11;90.12
19795;BME280;10057;59.402;17.866;2024-01-30T04:18:14;102418.31;;;0.11;90.07
19795;BME280;10057;59.402;17.866;2024-01-30T04:20:40;102420.94;;;0.11;90.11
19795;BME280;10057;59.402;17.866;2024-01-30T04:23:07;102420.09;;;0.12;90.14
19795;BME280;10057;59.402;17.866;2024-01-30T04:25:34;102415.72;;;0.11;90.04
19795;BME280;10057;59.402;17.866;2024-01-30T04:28:00;102426.16;;;0.11;90.02
19795;BME280;10057;59.402;17.866;2024-01-30T04:30:27;102419.09;;;0.08;90.35
19795;BME280;10057;59.402;17.866;2024-01-30T04:32:54;102417.22;;;0.31;89.45
19795;BME280;10057;59.402;17.866;2024-01-30T04:35:20;102417.75;;;0.48;88.88
19795;BME280;10057;59.402;17.866;2024-01-30T04:37:52;102418.63;;;0.49;88.36
19795;BME280;10057;59.402;17.866;2024-01-30T04:40:20;102416.72;;;0.43;88.71
19795;BME280;10057;59.402;17.866;2024-01-30T04:42:47;102416.50;;;0.37;88.67
19795;BME280;10057;59.402;17.866;2024-01-30T04:45:14;102408.56;;;0.32;88.89
19795;BME280;10057;59.402;17.866;2024-01-30T04:47:41;102410.19;;;0.29;88.93
19795;BME280;10057;59.402;17.866;2024-01-30T04:50:08;102414.47;;;0.27;89.38
19795;BME280;10057;59.402;17.866;2024-01-30T04:52:35;102418.75;;;0.25;89.52
19795;BME280;10057;59.402;17.866;2024-01-30T04:55:02;102422.16;;;0.22;89.57
19795;BME280;10057;59.402;17.866;2024-01-30T04:57:29;102424.75;;;0.22;89.61
19795;BME280;10057;59.402;17.866;2024-01-30T04:59:57;102415.97;;;0.20;89.72
19795;BME280;10057;59.402;17.866;2024-01-30T05:02:24;102414.22;;;0.19;89.82
19795;BME280;10057;59.402;17.866;2024-01-30T05:04:50;102409.00;;;0.19;89.90
19795;BME280;10057;59.402;17.866;2024-01-30T05:07:17;102408.16;;;0.20;90.10
19795;BME280;10057;59.402;17.866;2024-01-30T05:09:44;102407.38;;;0.22;90.16
19795;BME280;10057;59.402;17.866;2024-01-30T05:12:11;102410.06;;;0.24;90.32
19795;BME280;10057;59.402;17.866;2024-01-30T05:14:38;102410.19;;;0.29;90.24
19795;BME280;10057;59.402;17.866;2024-01-30T05:17:06;102401.47;;;0.28;90.13
19795;BME280;10057;59.402;17.866;2024-01-30T05:19:34;102402.38;;;0.30;90.26
19795;BME280;10057;59.402;17.866;2024-01-30T05:22:01;102399.78;;;0.30;90.05
19795;BME280;10057;59.402;17.866;2024-01-30T05:24:27;102398.97;;;0.31;89.97
19795;BME280;10057;59.402;17.866;2024-01-30T05:26:54;102405.09;;;0.33;90.15
19795;BME280;10057;59.402;17.866;2024-01-30T05:29:21;102406.88;;;0.34;90.03
19795;BME280;10057;59.402;17.866;2024-01-30T05:31:48;102397.25;;;0.33;90.09
19795;BME280;10057;59.402;17.866;2024-01-30T05:34:16;102401.66;;;0.34;90.06
19795;BME280;10057;59.402;17.866;2024-01-30T05:36:42;102408.69;;;0.37;90.02
19795;BME280;10057;59.402;17.866;2024-01-30T05:39:09;102406.94;;;0.37;90.14
19795;BME280;10057;59.402;17.866;2024-01-30T05:41:36;102413.13;;;0.39;90.04
19795;BME280;10057;59.402;17.866;2024-01-30T05:44:03;102408.78;;;0.40;90.16
19795;BME280;10057;59.402;17.866;2024-01-30T05:46:30;102407.94;;;0.41;90.06
19795;BME280;10057;59.402;17.866;2024-01-30T05:48:56;102411.47;;;0.41;90.31
19795;BME280;10057;59.402;17.866;2024-01-30T05:51:23;102407.22;;;0.45;90.10
19795;BME280;10057;59.402;17.866;2024-01-30T05:53:50;102404.53;;;0.43;90.40
19795;BME280;10057;59.402;17.866;2024-01-30T05:56:17;102401.03;;;0.43;90.20
19795;BME280;10057;59.402;17.866;2024-01-30T05:58:43;102400.19;;;0.44;90.18
19795;BME280;10057;59.402;17.866;2024-01-30T06:01:10;102401.94;;;0.43;90.38
19795;BME280;10057;59.402;17.866;2024-01-30T06:03:37;102400.19;;;0.44;90.28
19795;BME280;10057;59.402;17.866;2024-01-30T06:06:05;102400.09;;;0.41;89.92
19795;BME280;10057;59.402;17.866;2024-01-30T06:08:32;102406.31;;;0.44;90.33
19795;BME280;10057;59.402;17.866;2024-01-30T06:10:59;102400.16;;;0.42;90.07
19795;BME280;10057;59.402;17.866;2024-01-30T06:13:26;102399.22;;;0.40;90.06
19795;BME280;10057;59.402;17.866;2024-01-30T06:15:53;102403.53;;;0.38;90.05
19795;BME280;10057;59.402;17.866;2024-01-30T06:18:20;102392.97;;;0.35;90.02
19795;BME280;10057;59.402;17.866;2024-01-30T06:20:47;102396.50;;;0.37;90.10
19795;BME280;10057;59.402;17.866;2024-01-30T06:23:13;102389.53;;;0.36;90.00
19795;BME280;10057;59.402;17.866;2024-01-30T06:25:41;102392.03;;;0.33;89.88
19795;BME280;10057;59.402;17.866;2024-01-30T06:28:07;102391.16;;;0.33;89.63
19795;BME280;10057;59.402;17.866;2024-01-30T06:30:34;102389.41;;;0.32;89.79
19795;BME280;10057;59.402;17.866;2024-01-30T06:33:01;102388.50;;;0.31;90.00
19795;BME280;10057;59.402;17.866;2024-01-30T06:35:28;102380.69;;;0.31;89.89
19795;BME280;10057;59.402;17.866;2024-01-30T06:37:55;102385.00;;;0.31;90.00
19795;BME280;10057;59.402;17.866;2024-01-30T06:40:22;102378.06;;;0.31;90.07
19795;BME280;10057;59.402;17.866;2024-01-30T06:42:49;102386.81;;;0.33;90.16
19795;BME280;10057;59.402;17.866;2024-01-30T06:45:16;102385.06;;;0.32;90.10
19795;BME280;10057;59.402;17.866;2024-01-30T06:47:43;102382.44;;;0.32;90.10
19795;BME280;10057;59.402;17.866;2024-01-30T06:50:10;102384.09;;;0.30;89.88
19795;BME280;10057;59.402;17.866;2024-01-30T06:52:36;102386.72;;;0.30;89.88
19795;BME280;10057;59.402;17.866;2024-01-30T06:55:03;102392.78;;;0.29;90.17
19795;BME280;10057;59.402;17.866;2024-01-30T06:57:30;102394.63;;;0.32;90.10
19795;BME280;10057;59.402;17.866;2024-01-30T06:59:57;102384.94;;;0.29;89.91
19795;BME280;10057;59.402;17.866;2024-01-30T07:02:23;102387.59;;;0.31;89.93
19795;BME280;10057;59.402;17.866;2024-01-30T07:04:50;102389.28;;;0.29;89.99
19795;BME280;10057;59.402;17.866;2024-01-30T07:07:17;102398.88;;;0.30;90.02
19795;BME280;10057;59.402;17.866;2024-01-30T07:09:44;102400.53;;;0.26;89.79
19795;BME280;10057;59.402;17.866;2024-01-30T07:12:11;102390.06;;;0.26;90.01
19795;BME280;10057;59.402;17.866;2024-01-30T07:14:37;102392.66;;;0.25;89.98
19795;BME280;10057;59.402;17.866;2024-01-30T07:17:04;102389.97;;;0.23;89.87
19795;BME280;10057;59.402;17.866;2024-01-30T07:19:31;102397.81;;;0.23;89.92
19795;BME280;10057;59.402;17.866;2024-01-30T07:21:58;102387.25;;;0.20;89.98
19795;BME280;10057;59.402;17.866;2024-01-30T07:24:24;102394.28;;;0.21;90.06
19795;BME280;10057;59.402;17.866;2024-01-30T07:26:51;102394.28;;;0.21;90.03
19795;BME280;10057;59.402;17.866;2024-01-30T07:29:18;102394.28;;;0.21;89.80
19795;BME280;10057;59.402;17.866;2024-01-30T07:31:44;102388.22;;;0.22;90.17
19795;BME280;10057;59.402;17.866;2024-01-30T07:34:11;102385.63;;;0.23;90.25
19795;BME280;10057;59.402;17.866;2024-01-30T07:36:38;102391.78;;;0.24;90.27
19795;BME280;10057;59.402;17.866;2024-01-30T07:39:05;102393.63;;;0.28;90.33
19795;BME280;10057;59.402;17.866;2024-01-30T07:41:32;102400.63;;;0.29;90.30
19795;BME280;10057;59.402;17.866;2024-01-30T07:43:59;102402.38;;;0.30;90.42
19795;BME280;10057;59.402;17.866;2024-01-30T07:46:25;102395.50;;;0.32;90.35
19795;BME280;10057;59.402;17.866;2024-01-30T07:48:52;102388.59;;;0.34;90.16
19795;BME280;10057;59.402;17.866;2024-01-30T07:51:21;102392.13;;;0.36;90.25
19795;BME280;10057;59.402;17.866;2024-01-30T07:53:54;102392.19;;;0.38;90.25
19795;BME280;10057;59.402;17.866;2024-01-30T07:56:20;102382.63;;;0.38;90.44
19795;BME280;10057;59.402;17.866;2024-01-30T07:58:47;102387.84;;;0.38;90.26
19795;BME280;10057;59.402;17.866;2024-01-30T08:01:15;102385.28;;;0.40;90.39
19795;BME280;10057;59.402;17.866;2024-01-30T08:03:42;102384.50;;;0.42;90.36
19795;BME280;10057;59.402;17.866;2024-01-30T08:06:09;102376.66;;;0.42;90.46
19795;BME280;10057;59.402;17.866;2024-01-30T08:08:36;102381.97;;;0.45;90.37
19795;BME280;10057;59.402;17.866;2024-01-30T08:11:04;102375.91;;;0.46;90.36
19795;BME280;10057;59.402;17.866;2024-01-30T08:13:31;102362.94;;;0.50;90.38
19795;BME280;10057;59.402;17.866;2024-01-30T08:15:58;102366.50;;;0.52;90.50
19795;BME280;10057;59.402;17.866;2024-01-30T08:18:24;102367.41;;;0.54;90.48
19795;BME280;10057;59.402;17.866;2024-01-30T08:20:51;102363.91;;;0.53;90.23
19795;BME280;10057;59.402;17.866;2024-01-30T08:23:18;102363.94;;;0.55;90.46
19795;BME280;10057;59.402;17.866;2024-01-30T08:25:45;102367.47;;;0.55;90.33
19795;BME280;10057;59.402;17.866;2024-01-30T08:28:11;102359.66;;;0.57;90.62
19795;BME280;10057;59.402;17.866;2024-01-30T08:30:38;102367.69;;;0.63;90.43
19795;BME280;10057;59.402;17.866;2024-01-30T08:33:06;102366.06;;;0.66;90.36
19795;BME280;10057;59.402;17.866;2024-01-30T08:35:33;102366.94;;;0.67;90.41
19795;BME280;10057;59.402;17.866;2024-01-30T08:38:00;102367.97;;;0.72;90.73
19795;BME280;10057;59.402;17.866;2024-01-30T08:40:27;102371.66;;;0.79;90.71
19795;BME280;10057;59.402;17.866;2024-01-30T08:42:55;102375.25;;;0.82;90.74
19795;BME280;10057;59.402;17.866;2024-01-30T08:45:22;102362.28;;;0.87;90.54
19795;BME280;10057;59.402;17.866;2024-01-30T08:47:48;102365.09;;;0.93;90.45
19795;BME280;10057;59.402;17.866;2024-01-30T08:50:15;102359.13;;;0.99;90.58
19795;BME280;10057;59.402;17.866;2024-01-30T08:52:42;102350.56;;;1.03;90.82
19795;BME280;10057;59.402;17.866;2024-01-30T08:55:10;102355.03;;;1.08;90.40
19795;BME280;10057;59.402;17.866;2024-01-30T08:57:37;102360.41;;;1.13;90.70
19795;BME280;10057;59.402;17.866;2024-01-30T09:00:05;102350.94;;;1.18;90.46
19795;BME280;10057;59.402;17.866;2024-01-30T09:02:33;102354.59;;;1.23;90.69
19795;BME280;10057;59.402;17.866;2024-01-30T09:05:00;102346.84;;;1.28;90.44
19795;BME280;10057;59.402;17.866;2024-01-30T09:07:27;102349.56;;;1.32;90.63
19795;BME280;10057;59.402;17.866;2024-01-30T09:09:54;102349.66;;;1.35;90.64
19795;BME280;10057;59.402;17.866;2024-01-30T09:12:21;102353.31;;;1.40;90.60
19795;BME280;10057;59.402;17.866;2024-01-30T09:14:47;102349.06;;;1.46;90.65
19795;BME280;10057;59.402;17.866;2024-01-30T09:17:14;102348.28;;;1.50;90.61
19795;BME280;10057;59.402;17.866;2024-01-30T09:19:41;102353.75;;;1.59;90.76
19795;BME280;10057;59.402;17.866;2024-01-30T09:22:07;102346.91;;;1.64;90.59
19795;BME280;10057;59.402;17.866;2024-01-30T09:24:34;102347.13;;;1.73;90.55
19795;BME280;10057;59.402;17.866;2024-01-30T09:27:01;102338.59;;;1.80;90.77
19795;BME280;10057;59.402;17.866;2024-01-30T09:29:28;102319.56;;;1.87;90.34
19795;BME280;10057;59.402;17.866;2024-01-30T09:31:54;102317.94;;;1.93;90.58
19795;BME280;10057;59.402;17.866;2024-01-30T09:34:21;102312.88;;;1.99;90.57
19795;BME280;10057;59.402;17.866;2024-01-30T09:36:48;102318.22;;;2.05;90.27
19795;BME280;10057;59.402;17.866;2024-01-30T09:39:15;102317.47;;;2.09;90.17
19795;BME280;10057;59.402;17.866;2024-01-30T09:41:55;102316.63;;;2.11;90.31
19795;BME280;10057;59.402;17.866;2024-01-30T09:44:28;102317.63;;;2.17;90.55
19795;BME280;10057;59.402;17.866;2024-01-30T09:46:55;102331.75;;;2.23;90.14
19795;BME280;10057;59.402;17.866;2024-01-30T09:49:22;102334.50;;;2.29;90.64
19795;BME280;10057;59.402;17.866;2024-01-30T09:51:51;102336.34;;;2.33;90.47
19795;BME280;10057;59.402;17.866;2024-01-30T09:54:19;102329.44;;;2.38;90.65
19795;BME280;10057;59.402;17.866;2024-01-30T09:56:47;102333.06;;;2.44;90.18
19795;BME280;10057;59.402;17.866;2024-01-30T09:59:14;102323.53;;;2.49;90.40
19795;BME280;10057;59.402;17.866;2024-01-30T10:01:42;102317.47;;;2.50;89.94
19795;BME280;10057;59.402;17.866;2024-01-30T10:04:09;102314.84;;;2.50;89.84
19795;BME280;10057;59.402;17.866;2024-01-30T10:06:37;102321.06;;;2.53;89.75
19795;BME280;10057;59.402;17.866;2024-01-30T10:09:03;102324.53;;;2.54;89.85
19795;BME280;10057;59.402;17.866;2024-01-30T10:11:30;102326.38;;;2.58;90.25
19795;BME280;10057;59.402;17.866;2024-01-30T10:13:57;102316.75;;;2.57;90.14
19795;BME280;10057;59.402;17.866;2024-01-30T10:16:24;102311.59;;;2.61;89.90
19795;BME280;10057;59.402;17.866;2024-01-30T10:18:51;102305.47;;;2.61;89.77
19795;BME280;10057;59.402;17.866;2024-01-30T10:21:18;102302.84;;;2.61;89.65
19795;BME280;10057;59.402;17.866;2024-01-30T10:23:45;102303.72;;;2.60;89.77
19795;BME280;10057;59.402;17.866;2024-01-30T10:26:11;102295.84;;;2.60;89.69
19795;BME280;10057;59.402;17.866;2024-01-30T10:28:38;102302.00;;;2.62;90.17
19795;BME280;10057;59.402;17.866;2024-01-30T10:31:05;102295.06;;;2.64;90.15
19795;BME280;10057;59.402;17.866;2024-01-30T10:33:33;102295.94;;;2.65;89.86
19795;BME280;10057;59.402;17.866;2024-01-30T10:36:01;102290.72;;;2.66;89.87
19795;BME280;10057;59.402;17.866;2024-01-30T10:38:29;102282.84;;;2.66;89.82
19795;BME280;10057;59.402;17.866;2024-01-30T10:40:57;102286.41;;;2.68;90.04
19795;BME280;10057;59.402;17.866;2024-01-30T10:43:35;102275.97;;;2.71;90.37
19795;BME280;10057;59.402;17.866;2024-01-30T10:46:10;102281.28;;;2.74;90.16
19795;BME280;10057;59.402;17.866;2024-01-30T10:48:42;102278.72;;;2.77;90.20
19795;BME280;10057;59.402;17.866;2024-01-30T10:51:11;102279.63;;;2.79;89.80
19795;BME280;10057;59.402;17.866;2024-01-30T10:53:41;102272.69;;;2.81;90.10
19795;BME280;10057;59.402;17.866;2024-01-30T10:56:08;102271.88;;;2.85;89.95
19795;BME280;10057;59.402;17.866;2024-01-30T10:58:34;102271.00;;;2.87;90.03
19795;BME280;10057;59.402;17.866;2024-01-30T11:01:02;102272.81;;;2.89;90.13
19795;BME280;10057;59.402;17.866;2024-01-30T11:03:30;102271.13;;;2.93;90.13
19795;BME280;10057;59.402;17.866;2024-01-30T11:06:00;102275.56;;;2.95;90.22
19795;BME280;10057;59.402;17.866;2024-01-30T11:08:26;102272.94;;;2.97;90.33
19795;BME280;10057;59.402;17.866;2024-01-30T11:10:56;102273.88;;;3.00;90.18
19795;BME280;10057;59.402;17.866;2024-01-30T11:13:30;102264.31;;;3.01;89.89
19795;BME280;10057;59.402;17.866;2024-01-30T11:16:04;102260.78;;;3.00;89.95
19795;BME280;10057;59.402;17.866;2024-01-30T11:18:32;102260.81;;;3.02;90.09
19795;BME280;10057;59.402;17.866;2024-01-30T11:21:00;102252.97;;;3.02;90.11
19795;BME280;10057;59.402;17.866;2024-01-30T11:23:28;102251.19;;;3.01;89.98
19795;BME280;10057;59.402;17.866;2024-01-30T11:25:56;102241.59;;;3.03;89.91
19795;BME280;10057;59.402;17.866;2024-01-30T11:28:23;102238.97;;;3.03;89.79
19795;BME280;10057;59.402;17.866;2024-01-30T11:30:50;102231.13;;;3.03;89.88
19795;BME280;10057;59.402;17.866;2024-01-30T11:33:28;102230.22;;;3.02;90.10
19795;BME280;10057;59.402;17.866;2024-01-30T11:36:00;102226.69;;;3.00;90.04
19795;BME280;10057;59.402;17.866;2024-01-30T11:38:27;102224.06;;;2.99;90.05
19795;BME280;10057;59.402;17.866;2024-01-30T11:40:55;102218.81;;;2.99;89.78
19795;BME280;10057;59.402;17.866;2024-01-30T11:43:24;102221.44;;;2.99;89.84
19795;BME280;10057;59.402;17.866;2024-01-30T11:45:51;102224.06;;;2.99;90.19
19795;BME280;10057;59.402;17.866;2024-01-30T11:48:19;102216.19;;;2.99;90.01
19795;BME280;10057;59.402;17.866;2024-01-30T11:50:46;102211.81;;;2.98;89.58
19795;BME280;10057;59.402;17.866;2024-01-30T11:53:13;102213.56;;;2.99;89.53
19795;BME280;10057;59.402;17.866;2024-01-30T11:55:39;102208.28;;;2.96;90.08
19795;BME280;10057;59.402;17.866;2024-01-30T11:58:06;102199.53;;;2.97;90.03
19795;BME280;10057;59.402;17.866;2024-01-30T12:00:33;102187.31;;;2.97;89.86
19795;BME280;10057;59.402;17.866;2024-01-30T12:03:01;102182.97;;;2.98;89.81
19795;BME280;10057;59.402;17.866;2024-01-30T12:05:30;102183.84;;;3.00;90.10
19795;BME280;10057;59.402;17.866;2024-01-30T12:07:57;102186.53;;;3.01;89.83
19795;BME280;10057;59.402;17.866;2024-01-30T12:10:28;102191.78;;;3.03;89.90
19795;BME280;10057;59.402;17.866;2024-01-30T12:12:55;102185.66;;;3.04;90.42
19795;BME280;10057;59.402;17.866;2024-01-30T12:15:23;102176.97;;;3.06;90.11
19795;BME280;10057;59.402;17.866;2024-01-30T12:17:50;102180.53;;;3.10;90.51
19795;BME280;10057;59.402;17.866;2024-01-30T12:20:19;102177.97;;;3.13;90.72
19795;BME280;10057;59.402;17.866;2024-01-30T12:22:49;102170.13;;;3.15;89.83
19795;BME280;10057;59.402;17.866;2024-01-30T12:25:18;102160.53;;;3.17;90.44
19795;BME280;10057;59.402;17.866;2024-01-30T12:27:47;102160.53;;;3.15;89.79
19795;BME280;10057;59.402;17.866;2024-01-30T12:30:19;102156.16;;;3.17;90.12
19795;BME280;10057;59.402;17.866;2024-01-30T12:32:50;102155.34;;;3.20;90.04
19795;BME280;10057;59.402;17.866;2024-01-30T12:35:18;102152.72;;;3.20;90.21
19795;BME280;10057;59.402;17.866;2024-01-30T12:37:47;102154.50;;;3.22;90.19
19795;BME280;10057;59.402;17.866;2024-01-30T12:40:15;102151.88;;;3.22;90.08
19795;BME280;10057;59.402;17.866;2024-01-30T12:42:43;102158.03;;;3.24;89.97
19795;BME280;10057;59.402;17.866;2024-01-30T12:45:13;102149.31;;;3.25;90.13
19795;BME280;10057;59.402;17.866;2024-01-30T12:47:41;102144.94;;;3.26;90.03
19795;BME280;10057;59.402;17.866;2024-01-30T12:50:08;102137.06;;;3.26;90.14